sensor_id;sensor_type;location;lat;lon;timestamp;pressure;altitude;pressure_sealevel;temperature;humidity
42519;BME280;28147;47.520;18.920;2023-07-31T00:02:01;98153.41;;;24.85;54.89
42519;BME280;28147;47.520;18.920;2023-07-31T00:04:26;98167.78;;;25.28;54.06
42519;BME280;28147;47.520;18.920;2023-07-31T00:06:52;98161.63;;;25.18;54.42
42519;BME280;28147;47.520;18.920;2023-07-31T00:09:17;98151.09;;;25.29;53.98
42519;BME280;28147;47.520;18.920;2023-07-31T00:11:42;98157.78;;;25.19;54.65
42519;BME280;28147;47.520;18.920;2023-07-31T00:14:08;98161.97;;;25.17;54.39
42519;BME280;28147;47.520;18.920;2023-07-31T00:16:33;98154.53;;;24.84;55.49
42519;BME280;28147;47.520;18.920;2023-07-31T00:18:59;98158.81;;;25.06;54.75
42519;BME280;28147;47.520;18.920;2023-07-31T00:21:24;98162.66;;;25.26;54.13
42519;BME280;28147;47.520;18.920;2023-07-31T00:23:49;98161.41;;;25.03;55.00
42519;BME280;28147;47.520;18.920;2023-07-31T00:26:15;98165.69;;;25.12;54.67
42519;BME280;28147;47.520;18.920;2023-07-31T00:28:40;98176.03;;;25.19;54.47
42519;BME280;28147;47.520;18.920;2023-07-31T00:31:06;98173.13;;;25.24;54.03
42519;BME280;28147;47.520;18.920;2023-07-31T00:33:31;98167.97;;;24.89;55.34
42519;BME280;28147;47.520;18.920;2023-07-31T00:35:57;98170.59;;;24.98;55.11
42519;BME280;28147;47.520;18.920;2023-07-31T00:38:22;98178.56;;;25.24;54.33
42519;BME280;28147;47.520;18.920;2023-07-31T00:40:47;98188.56;;;24.78;56.03
42519;BME280;28147;47.520;18.920;2023-07-31T00:43:13;98179.34;;;25.04;55.22
42519;BME280;28147;47.520;18.920;2023-07-31T00:45:38;98183.38;;;24.85;55.49
42519;BME280;28147;47.520;18.920;2023-07-31T00:48:04;98181.75;;;25.05;55.43
42519;BME280;28147;47.520;18.920;2023-07-31T00:50:31;98176.25;;;24.72;56.24
42519;BME280;28147;47.520;18.920;2023-07-31T00:52:58;98169.28;;;25.04;55.26
42519;BME280;28147;47.520;18.920;2023-07-31T00:55:24;98171.00;;;25.09;55.23
42519;BME280;28147;47.520;18.920;2023-07-31T00:57:49;98159.44;;;24.91;55.78
42519;BME280;28147;47.520;18.920;2023-07-31T01:00:15;98172.09;;;24.74;55.76
42519;BME280;28147;47.520;18.920;2023-07-31T01:02:40;98176.72;;;24.53;56.27
42519;BME280;28147;47.520;18.920;2023-07-31T01:05:06;98164.03;;;24.27;56.34
42519;BME280;28147;47.520;18.920;2023-07-31T01:07:45;98159.94;;;24.51;55.28
42519;BME280;28147;47.520;18.920;2023-07-31T01:10:28;98168.88;;;24.51;55.42
42519;BME280;28147;47.520;18.920;2023-07-31T01:12:56;98170.00;;;24.50;55.10
42519;BME280;28147;47.520;18.920;2023-07-31T01:15:22;98172.31;;;24.40;55.18
42519;BME280;28147;47.520;18.920;2023-07-31T01:17:47;98183.03;;;24.36;55.44
42519;BME280;28147;47.520;18.920;2023-07-31T01:20:22;98187.56;;;24.32;54.71
42519;BME280;28147;47.520;18.920;2023-07-31T01:23:20;98190.94;;;24.59;54.36
42519;BME280;28147;47.520;18.920;2023-07-31T01:28:25;98188.31;;;24.41;55.20
42519;BME280;28147;47.520;18.920;2023-07-31T01:30:55;98183.84;;;24.37;55.17
42519;BME280;28147;47.520;18.920;2023-07-31T01:33:23;98174.13;;;24.27;55.54
42519;BME280;28147;47.520;18.920;2023-07-31T01:35:49;98178.50;;;24.49;54.91
42519;BME280;28147;47.520;18.920;2023-07-31T01:38:15;98180.44;;;24.48;54.31
42519;BME280;28147;47.520;18.920;2023-07-31T01:40:44;98172.00;;;24.83;53.66
42519;BME280;28147;47.520;18.920;2023-07-31T01:43:09;98162.31;;;24.23;54.36
42519;BME280;28147;47.520;18.920;2023-07-31T01:45:34;98161.69;;;24.47;53.72
42519;BME280;28147;47.520;18.920;2023-07-31T01:48:00;98164.81;;;24.28;54.58
42519;BME280;28147;47.520;18.920;2023-07-31T01:50:25;98156.44;;;24.12;53.92
42519;BME280;28147;47.520;18.920;2023-07-31T01:52:50;98151.81;;;24.42;53.26
42519;BME280;28147;47.520;18.920;2023-07-31T01:55:16;98145.13;;;24.61;52.75
42519;BME280;28147;47.520;18.920;2023-07-31T01:57:41;98152.81;;;24.59;53.00
42519;BME280;28147;47.520;18.920;2023-07-31T02:00:07;98144.44;;;24.43;52.73
42519;BME280;28147;47.520;18.920;2023-07-31T02:02:33;98145.72;;;24.66;52.79
42519;BME280;28147;47.520;18.920;2023-07-31T02:04:58;98150.69;;;24.85;52.08
42519;BME280;28147;47.520;18.920;2023-07-31T02:07:23;98153.75;;;24.63;52.74
42519;BME280;28147;47.520;18.920;2023-07-31T02:09:49;98162.66;;;24.51;53.05
42519;BME280;28147;47.520;18.920;2023-07-31T02:12:14;98166.28;;;24.25;53.35
42519;BME280;28147;47.520;18.920;2023-07-31T02:14:40;98160.34;;;24.32;53.67
42519;BME280;28147;47.520;18.920;2023-07-31T02:17:06;98158.13;;;24.25;53.66
42519;BME280;28147;47.520;18.920;2023-07-31T02:19:31;98155.97;;;24.10;53.91
42519;BME280;28147;47.520;18.920;2023-07-31T02:21:57;98161.34;;;23.89;54.43
42519;BME280;28147;47.520;18.920;2023-07-31T02:24:23;98163.56;;;23.96;54.26
42519;BME280;28147;47.520;18.920;2023-07-31T02:26:49;98172.53;;;24.26;53.48
42519;BME280;28147;47.520;18.920;2023-07-31T02:29:14;98169.94;;;24.30;53.16
42519;BME280;28147;47.520;18.920;2023-07-31T02:31:39;98176.03;;;24.26;53.14
42519;BME280;28147;47.520;18.920;2023-07-31T02:34:05;98159.59;;;24.52;52.61
42519;BME280;28147;47.520;18.920;2023-07-31T02:36:30;98153.88;;;24.45;52.79
42519;BME280;28147;47.520;18.920;2023-07-31T02:38:56;98167.16;;;24.38;52.86
42519;BME280;28147;47.520;18.920;2023-07-31T02:41:21;98175.25;;;24.26;53.09
42519;BME280;28147;47.520;18.920;2023-07-31T02:43:46;98173.84;;;24.20;53.46
42519;BME280;28147;47.520;18.920;2023-07-31T02:46:12;98183.03;;;24.07;54.03
42519;BME280;28147;47.520;18.920;2023-07-31T02:48:37;98182.53;;;24.13;53.66
42519;BME280;28147;47.520;18.920;2023-07-31T02:51:03;98189.47;;;23.93;54.05
42519;BME280;28147;47.520;18.920;2023-07-31T02:53:28;98180.47;;;24.01;54.32
42519;BME280;28147;47.520;18.920;2023-07-31T02:55:53;98193.94;;;23.98;54.38
42519;BME280;28147;47.520;18.920;2023-07-31T02:58:19;98193.28;;;23.45;55.41
42519;BME280;28147;47.520;18.920;2023-07-31T03:00:44;98183.53;;;23.53;55.16
42519;BME280;28147;47.520;18.920;2023-07-31T03:03:10;98176.97;;;23.54;55.22
42519;BME280;28147;47.520;18.920;2023-07-31T03:05:35;98169.19;;;23.35;55.54
42519;BME280;28147;47.520;18.920;2023-07-31T03:08:01;98181.03;;;23.86;54.53
42519;BME280;28147;47.520;18.920;2023-07-31T03:10:26;98171.81;;;23.70;54.57
42519;BME280;28147;47.520;18.920;2023-07-31T03:12:52;98178.69;;;23.67;54.39
42519;BME280;28147;47.520;18.920;2023-07-31T03:15:17;98180.78;;;23.62;54.69
42519;BME280;28147;47.520;18.920;2023-07-31T03:17:43;98175.78;;;23.64;54.49
42519;BME280;28147;47.520;18.920;2023-07-31T03:20:08;98184.88;;;23.85;54.01
42519;BME280;28147;47.520;18.920;2023-07-31T03:22:34;98194.47;;;23.91;54.22
42519;BME280;28147;47.520;18.920;2023-07-31T03:25:03;98185.22;;;23.75;53.90
42519;BME280;28147;47.520;18.920;2023-07-31T03:27:29;98190.84;;;24.08;53.49
42519;BME280;28147;47.520;18.920;2023-07-31T03:29:54;98182.53;;;24.13;53.29
42519;BME280;28147;47.520;18.920;2023-07-31T03:32:20;98183.88;;;23.98;53.57
42519;BME280;28147;47.520;18.920;2023-07-31T03:34:45;98185.47;;;23.99;53.50
42519;BME280;28147;47.520;18.920;2023-07-31T03:37:11;98199.03;;;23.52;54.86
42519;BME280;28147;47.520;18.920;2023-07-31T03:39:36;98194.16;;;23.84;54.11
42519;BME280;28147;47.520;18.920;2023-07-31T03:42:02;98210.50;;;23.67;54.35
42519;BME280;28147;47.520;18.920;2023-07-31T03:44:27;98195.00;;;23.59;53.99
42519;BME280;28147;47.520;18.920;2023-07-31T03:46:53;98202.84;;;23.69;54.40
42519;BME280;28147;47.520;18.920;2023-07-31T03:49:18;98196.13;;;23.66;54.01
42519;BME280;28147;47.520;18.920;2023-07-31T03:51:43;98201.09;;;23.64;54.12
42519;BME280;28147;47.520;18.920;2023-07-31T03:54:09;98193.91;;;23.51;54.55
42519;BME280;28147;47.520;18.920;2023-07-31T03:56:35;98197.06;;;23.79;54.02
42519;BME280;28147;47.520;18.920;2023-07-31T03:59:00;98198.84;;;23.58;54.41
42519;BME280;28147;47.520;18.920;2023-07-31T04:01:26;98207.81;;;24.14;52.67
42519;BME280;28147;47.520;18.920;2023-07-31T04:03:52;98206.75;;;24.27;52.65
42519;BME280;28147;47.520;18.920;2023-07-31T04:06:17;98202.75;;;23.95;53.51
42519;BME280;28147;47.520;18.920;2023-07-31T04:08:45;98210.28;;;24.27;52.67
42519;BME280;28147;47.520;18.920;2023-07-31T04:11:11;98208.03;;;24.30;52.51
42519;BME280;28147;47.520;18.920;2023-07-31T04:13:37;98208.56;;;24.52;51.75
42519;BME280;28147;47.520;18.920;2023-07-31T04:16:03;98206.06;;;24.47;51.49
42519;BME280;28147;47.520;18.920;2023-07-31T04:18:28;98210.56;;;24.35;52.29
42519;BME280;28147;47.520;18.920;2023-07-31T04:20:56;98220.97;;;24.41;52.09
42519;BME280;28147;47.520;18.920;2023-07-31T04:23:23;98209.78;;;24.64;51.36
42519;BME280;28147;47.520;18.920;2023-07-31T04:25:49;98205.09;;;24.43;50.98
42519;BME280;28147;47.520;18.920;2023-07-31T04:28:14;98215.13;;;24.22;50.61
42519;BME280;28147;47.520;18.920;2023-07-31T04:30:39;98211.94;;;23.73;50.80
42519;BME280;28147;47.520;18.920;2023-07-31T04:33:05;98203.31;;;24.18;48.95
42519;BME280;28147;47.520;18.920;2023-07-31T04:35:30;98205.78;;;24.32;48.51
42519;BME280;28147;47.520;18.920;2023-07-31T04:37:55;98206.63;;;23.85;48.66
42519;BME280;28147;47.520;18.920;2023-07-31T04:40:21;98200.94;;;23.61;47.86
42519;BME280;28147;47.520;18.920;2023-07-31T04:42:47;98206.81;;;23.80;46.54
42519;BME280;28147;47.520;18.920;2023-07-31T04:45:12;98201.44;;;24.01;45.62
42519;BME280;28147;47.520;18.920;2023-07-31T04:47:37;98206.97;;;23.75;46.92
42519;BME280;28147;47.520;18.920;2023-07-31T04:50:03;98207.59;;;23.81;46.92
42519;BME280;28147;47.520;18.920;2023-07-31T04:52:28;98199.50;;;23.54;47.97
42519;BME280;28147;47.520;18.920;2023-07-31T04:54:54;98200.97;;;23.43;47.68
42519;BME280;28147;47.520;18.920;2023-07-31T04:57:19;98201.25;;;23.50;47.06
42519;BME280;28147;47.520;18.920;2023-07-31T04:59:44;98194.00;;;23.81;46.76
42519;BME280;28147;47.520;18.920;2023-07-31T05:02:12;98198.34;;;23.73;46.53
42519;BME280;28147;47.520;18.920;2023-07-31T05:04:38;98204.19;;;23.11;47.11
42519;BME280;28147;47.520;18.920;2023-07-31T05:07:03;98190.09;;;23.26;46.91
42519;BME280;28147;47.520;18.920;2023-07-31T05:09:29;98201.63;;;23.05;46.69
42519;BME280;28147;47.520;18.920;2023-07-31T05:11:55;98200.59;;;23.79;45.48
42519;BME280;28147;47.520;18.920;2023-07-31T05:14:21;98197.56;;;23.55;46.08
42519;BME280;28147;47.520;18.920;2023-07-31T05:16:47;98200.00;;;23.39;47.02
42519;BME280;28147;47.520;18.920;2023-07-31T05:19:13;98197.78;;;23.24;47.10
42519;BME280;28147;47.520;18.920;2023-07-31T05:21:38;98204.97;;;23.46;47.18
42519;BME280;28147;47.520;18.920;2023-07-31T05:24:04;98202.91;;;24.28;45.54
42519;BME280;28147;47.520;18.920;2023-07-31T05:26:29;98210.38;;;24.48;45.57
42519;BME280;28147;47.520;18.920;2023-07-31T05:28:55;98211.13;;;24.19;45.90
42519;BME280;28147;47.520;18.920;2023-07-31T05:31:20;98200.03;;;23.95;46.71
42519;BME280;28147;47.520;18.920;2023-07-31T05:33:47;98195.84;;;23.97;46.55
42519;BME280;28147;47.520;18.920;2023-07-31T05:36:15;98194.56;;;24.03;45.99
42519;BME280;28147;47.520;18.920;2023-07-31T05:38:40;98203.59;;;24.25;45.24
42519;BME280;28147;47.520;18.920;2023-07-31T05:41:05;98206.69;;;24.74;43.59
42519;BME280;28147;47.520;18.920;2023-07-31T05:43:31;98215.09;;;24.81;43.97
42519;BME280;28147;47.520;18.920;2023-07-31T05:45:56;98205.53;;;24.75;43.55
42519;BME280;28147;47.520;18.920;2023-07-31T05:48:21;98211.72;;;24.84;44.10
42519;BME280;28147;47.520;18.920;2023-07-31T05:50:47;98219.88;;;24.63;44.10
42519;BME280;28147;47.520;18.920;2023-07-31T05:53:12;98221.28;;;24.90;43.90
42519;BME280;28147;47.520;18.920;2023-07-31T05:55:38;98211.53;;;25.31;42.97
42519;BME280;28147;47.520;18.920;2023-07-31T05:58:03;98229.47;;;25.78;42.21
42519;BME280;28147;47.520;18.920;2023-07-31T06:00:29;98222.69;;;25.38;42.37
42519;BME280;28147;47.520;18.920;2023-07-31T06:02:54;98220.94;;;24.92;44.00
42519;BME280;28147;47.520;18.920;2023-07-31T06:05:20;98220.81;;;24.88;43.14
42519;BME280;28147;47.520;18.920;2023-07-31T06:07:45;98221.38;;;24.82;43.85
42519;BME280;28147;47.520;18.920;2023-07-31T06:10:11;98227.69;;;25.48;43.27
42519;BME280;28147;47.520;18.920;2023-07-31T06:12:36;98223.34;;;25.35;42.44
42519;BME280;28147;47.520;18.920;2023-07-31T06:15:03;98224.41;;;25.22;42.96
42519;BME280;28147;47.520;18.920;2023-07-31T06:17:28;98219.22;;;25.29;42.75
42519;BME280;28147;47.520;18.920;2023-07-31T06:19:55;98212.06;;;25.58;41.29
42519;BME280;28147;47.520;18.920;2023-07-31T06:22:21;98213.19;;;26.14;40.98
42519;BME280;28147;47.520;18.920;2023-07-31T06:24:46;98213.66;;;26.41;40.98
42519;BME280;28147;47.520;18.920;2023-07-31T06:27:12;98225.16;;;26.22;41.35
42519;BME280;28147;47.520;18.920;2023-07-31T06:29:37;98220.50;;;25.32;42.28
42519;BME280;28147;47.520;18.920;2023-07-31T06:32:03;98216.66;;;25.45;42.32
42519;BME280;28147;47.520;18.920;2023-07-31T06:34:29;98228.28;;;25.21;42.55
42519;BME280;28147;47.520;18.920;2023-07-31T06:36:55;98237.38;;;25.25;42.18
42519;BME280;28147;47.520;18.920;2023-07-31T06:39:21;98237.56;;;24.99;42.48
42519;BME280;28147;47.520;18.920;2023-07-31T06:41:46;98236.50;;;24.91;42.35
42519;BME280;28147;47.520;18.920;2023-07-31T06:44:11;98233.34;;;25.10;43.14
42519;BME280;28147;47.520;18.920;2023-07-31T06:46:37;98250.13;;;25.33;43.71
42519;BME280;28147;47.520;18.920;2023-07-31T06:49:03;98253.81;;;25.08;42.80
42519;BME280;28147;47.520;18.920;2023-07-31T06:51:28;98239.25;;;25.12;43.08
42519;BME280;28147;47.520;18.920;2023-07-31T06:53:53;98258.22;;;25.00;43.01
42519;BME280;28147;47.520;18.920;2023-07-31T06:56:20;98263.19;;;24.98;43.95
42519;BME280;28147;47.520;18.920;2023-07-31T06:58:46;98265.09;;;25.27;43.41
42519;BME280;28147;47.520;18.920;2023-07-31T07:01:11;98265.91;;;25.28;42.80
42519;BME280;28147;47.520;18.920;2023-07-31T07:03:36;98265.50;;;24.87;42.55
42519;BME280;28147;47.520;18.920;2023-07-31T07:06:02;98267.03;;;24.76;43.35
42519;BME280;28147;47.520;18.920;2023-07-31T07:08:27;98275.66;;;25.50;43.33
42519;BME280;28147;47.520;18.920;2023-07-31T07:10:53;98277.91;;;25.47;42.07
42519;BME280;28147;47.520;18.920;2023-07-31T07:13:19;98279.03;;;25.46;42.89
42519;BME280;28147;47.520;18.920;2023-07-31T07:15:53;98274.75;;;25.58;41.06
42519;BME280;28147;47.520;18.920;2023-07-31T07:18:18;98276.31;;;26.37;41.07
42519;BME280;28147;47.520;18.920;2023-07-31T07:20:51;98281.06;;;26.04;41.51
42519;BME280;28147;47.520;18.920;2023-07-31T07:23:16;98279.66;;;25.98;41.26
42519;BME280;28147;47.520;18.920;2023-07-31T07:25:43;98276.75;;;26.88;41.03
42519;BME280;28147;47.520;18.920;2023-07-31T07:28:09;98289.47;;;27.21;40.03
42519;BME280;28147;47.520;18.920;2023-07-31T07:30:34;98277.94;;;26.75;40.97
42519;BME280;28147;47.520;18.920;2023-07-31T07:33:00;98254.69;;;26.08;40.61
42519;BME280;28147;47.520;18.920;2023-07-31T07:35:25;98271.53;;;26.83;39.91
42519;BME280;28147;47.520;18.920;2023-07-31T07:37:51;98283.16;;;26.68;39.57
42519;BME280;28147;47.520;18.920;2023-07-31T07:40:16;98279.16;;;26.90;39.52
42519;BME280;28147;47.520;18.920;2023-07-31T07:42:41;98285.59;;;27.22;39.06
42519;BME280;28147;47.520;18.920;2023-07-31T07:45:07;98273.59;;;26.74;40.06
42519;BME280;28147;47.520;18.920;2023-07-31T07:47:33;98271.44;;;26.80;40.05
42519;BME280;28147;47.520;18.920;2023-07-31T07:49:58;98283.13;;;27.17;38.19
42519;BME280;28147;47.520;18.920;2023-07-31T07:52:24;98284.31;;;27.60;37.62
42519;BME280;28147;47.520;18.920;2023-07-31T07:54:49;98280.69;;;27.56;36.63
42519;BME280;28147;47.520;18.920;2023-07-31T07:57:15;98277.25;;;27.87;35.26
42519;BME280;28147;47.520;18.920;2023-07-31T07:59:41;98274.69;;;27.78;35.25
42519;BME280;28147;47.520;18.920;2023-07-31T08:02:06;98277.66;;;27.73;35.21
42519;BME280;28147;47.520;18.920;2023-07-31T08:04:32;98280.84;;;28.19;35.69
42519;BME280;28147;47.520;18.920;2023-07-31T08:06:57;98272.16;;;28.01;35.11
42519;BME280;28147;47.520;18.920;2023-07-31T08:09:22;98267.34;;;26.86;36.00
42519;BME280;28147;47.520;18.920;2023-07-31T08:11:48;98275.72;;;27.05;35.21
42519;BME280;28147;47.520;18.920;2023-07-31T08:14:13;98264.91;;;27.93;35.75
42519;BME280;28147;47.520;18.920;2023-07-31T08:16:39;98265.91;;;28.01;34.85
42519;BME280;28147;47.520;18.920;2023-07-31T08:19:04;98270.22;;;28.18;34.58
42519;BME280;28147;47.520;18.920;2023-07-31T08:21:29;98267.22;;;28.54;34.79
42519;BME280;28147;47.520;18.920;2023-07-31T08:23:55;98276.91;;;28.83;33.74
42519;BME280;28147;47.520;18.920;2023-07-31T08:26:20;98267.56;;;28.21;35.04
42519;BME280;28147;47.520;18.920;2023-07-31T08:28:46;98272.47;;;28.95;34.11
42519;BME280;28147;47.520;18.920;2023-07-31T08:31:11;98273.94;;;28.41;34.98
42519;BME280;28147;47.520;18.920;2023-07-31T08:33:38;98266.94;;;29.49;34.71
42519;BME280;28147;47.520;18.920;2023-07-31T08:36:03;98267.94;;;28.86;33.87
42519;BME280;28147;47.520;18.920;2023-07-31T08:38:29;98268.34;;;27.90;34.57
42519;BME280;28147;47.520;18.920;2023-07-31T08:40:57;98279.00;;;28.90;33.97
42519;BME280;28147;47.520;18.920;2023-07-31T08:43:25;98272.94;;;28.81;33.92
42519;BME280;28147;47.520;18.920;2023-07-31T08:45:51;98269.78;;;29.14;32.93
42519;BME280;28147;47.520;18.920;2023-07-31T08:48:17;98277.94;;;28.79;33.16
42519;BME280;28147;47.520;18.920;2023-07-31T08:50:43;98271.44;;;28.83;33.17
42519;BME280;28147;47.520;18.920;2023-07-31T08:53:08;98276.47;;;29.17;33.92
42519;BME280;28147;47.520;18.920;2023-07-31T08:55:35;98283.13;;;29.74;32.37
42519;BME280;28147;47.520;18.920;2023-07-31T08:58:03;98287.72;;;29.50;33.23
42519;BME280;28147;47.520;18.920;2023-07-31T09:00:29;98280.09;;;29.79;33.14
42519;BME280;28147;47.520;18.920;2023-07-31T09:03:00;98278.13;;;30.22;33.16
42519;BME280;28147;47.520;18.920;2023-07-31T09:05:31;98288.25;;;29.75;30.40
42519;BME280;28147;47.520;18.920;2023-07-31T09:07:57;98287.06;;;30.42;31.30
42519;BME280;28147;47.520;18.920;2023-07-31T09:10:23;98289.06;;;29.99;32.36
42519;BME280;28147;47.520;18.920;2023-07-31T09:12:51;98276.13;;;28.67;33.23
42519;BME280;28147;47.520;18.920;2023-07-31T09:15:16;98283.06;;;28.96;33.08
42519;BME280;28147;47.520;18.920;2023-07-31T09:17:42;98281.81;;;29.09;32.47
42519;BME280;28147;47.520;18.920;2023-07-31T09:20:17;98278.78;;;29.34;32.23
42519;BME280;28147;47.520;18.920;2023-07-31T09:22:44;98283.00;;;29.47;32.96
42519;BME280;28147;47.520;18.920;2023-07-31T09:25:20;98283.03;;;29.51;32.49
42519;BME280;28147;47.520;18.920;2023-07-31T09:27:51;98284.66;;;29.71;32.82
42519;BME280;28147;47.520;18.920;2023-07-31T09:30:17;98281.50;;;30.61;32.00
42519;BME280;28147;47.520;18.920;2023-07-31T09:32:44;98280.88;;;29.79;32.48
42519;BME280;28147;47.520;18.920;2023-07-31T09:35:30;98276.91;;;29.77;32.69
42519;BME280;28147;47.520;18.920;2023-07-31T09:38:00;98270.13;;;29.32;32.65
42519;BME280;28147;47.520;18.920;2023-07-31T09:40:32;98269.31;;;29.51;32.15
42519;BME280;28147;47.520;18.920;2023-07-31T09:43:01;98267.47;;;29.74;31.43
42519;BME280;28147;47.520;18.920;2023-07-31T09:45:27;98271.78;;;29.37;32.22
42519;BME280;28147;47.520;18.920;2023-07-31T09:47:54;98259.66;;;29.38;32.00
42519;BME280;28147;47.520;18.920;2023-07-31T09:50:24;98249.25;;;29.47;31.35
42519;BME280;28147;47.520;18.920;2023-07-31T09:52:51;98255.31;;;29.56;31.99
42519;BME280;28147;47.520;18.920;2023-07-31T09:55:17;98248.56;;;28.60;33.05
42519;BME280;28147;47.520;18.920;2023-07-31T09:57:48;98264.28;;;29.72;32.60
42519;BME280;28147;47.520;18.920;2023-07-31T10:00:15;98252.44;;;29.68;31.45
42519;BME280;28147;47.520;18.920;2023-07-31T10:02:41;98235.72;;;29.15;31.39
42519;BME280;28147;47.520;18.920;2023-07-31T10:05:10;98244.72;;;29.35;32.19
42519;BME280;28147;47.520;18.920;2023-07-31T10:07:38;98244.28;;;29.52;32.22
42519;BME280;28147;47.520;18.920;2023-07-31T10:10:07;98267.09;;;29.37;32.26
42519;BME280;28147;47.520;18.920;2023-07-31T10:12:34;98257.78;;;30.03;32.17
42519;BME280;28147;47.520;18.920;2023-07-31T10:15:01;98254.81;;;30.62;31.77
42519;BME280;28147;47.520;18.920;2023-07-31T10:17:29;98245.28;;;30.29;30.31
42519;BME280;28147;47.520;18.920;2023-07-31T10:19:56;98253.63;;;30.13;31.56
42519;BME280;28147;47.520;18.920;2023-07-31T10:22:23;98250.50;;;30.38;31.72
42519;BME280;28147;47.520;18.920;2023-07-31T10:24:50;98257.06;;;30.29;31.80
42519;BME280;28147;47.520;18.920;2023-07-31T10:27:15;98259.53;;;30.38;30.02
42519;BME280;28147;47.520;18.920;2023-07-31T10:29:43;98251.50;;;30.75;30.10
42519;BME280;28147;47.520;18.920;2023-07-31T10:32:10;98238.78;;;30.67;29.88
42519;BME280;28147;47.520;18.920;2023-07-31T10:34:39;98251.00;;;31.26;29.58
42519;BME280;28147;47.520;18.920;2023-07-31T10:40:03;98253.75;;;30.70;28.54
42519;BME280;28147;47.520;18.920;2023-07-31T10:42:37;98247.44;;;30.92;28.29
42519;BME280;28147;47.520;18.920;2023-07-31T10:45:08;98246.63;;;30.65;29.36
42519;BME280;28147;47.520;18.920;2023-07-31T10:47:45;98252.00;;;30.09;30.04
42519;BME280;28147;47.520;18.920;2023-07-31T10:50:23;98239.56;;;29.72;30.70
42519;BME280;28147;47.520;18.920;2023-07-31T10:52:53;98229.06;;;30.73;29.71
42519;BME280;28147;47.520;18.920;2023-07-31T10:55:29;98233.94;;;30.57;29.48
42519;BME280;28147;47.520;18.920;2023-07-31T10:57:56;98234.34;;;30.10;29.45
42519;BME280;28147;47.520;18.920;2023-07-31T11:00:25;98256.78;;;30.15;29.80
42519;BME280;28147;47.520;18.920;2023-07-31T11:08:23;98230.41;;;31.13;28.42
42519;BME280;28147;47.520;18.920;2023-07-31T11:11:09;98239.03;;;30.82;28.95
42519;BME280;28147;47.520;18.920;2023-07-31T11:13:44;98235.16;;;30.60;28.44
42519;BME280;28147;47.520;18.920;2023-07-31T11:16:11;98236.72;;;31.17;27.76
42519;BME280;28147;47.520;18.920;2023-07-31T11:18:41;98244.84;;;31.74;27.73
42519;BME280;28147;47.520;18.920;2023-07-31T11:21:19;98239.50;;;31.51;27.51
42519;BME280;28147;47.520;18.920;2023-07-31T11:23:49;98236.81;;;31.24;27.83
42519;BME280;28147;47.520;18.920;2023-07-31T11:26:15;98220.50;;;30.25;28.76
42519;BME280;28147;47.520;18.920;2023-07-31T11:28:41;98219.19;;;30.95;27.97
42519;BME280;28147;47.520;18.920;2023-07-31T11:31:09;98225.28;;;31.42;27.31
42519;BME280;28147;47.520;18.920;2023-07-31T11:33:35;98220.66;;;30.89;28.26
42519;BME280;28147;47.520;18.920;2023-07-31T11:36:00;98209.91;;;30.50;29.33
42519;BME280;28147;47.520;18.920;2023-07-31T11:38:31;98221.75;;;30.54;28.27
42519;BME280;28147;47.520;18.920;2023-07-31T11:40:58;98220.03;;;30.20;28.04
42519;BME280;28147;47.520;18.920;2023-07-31T11:43:24;98219.69;;;30.74;28.05
42519;BME280;28147;47.520;18.920;2023-07-31T11:45:57;98227.25;;;30.81;28.42
42519;BME280;28147;47.520;18.920;2023-07-31T11:48:24;98222.69;;;30.66;27.35
42519;BME280;28147;47.520;18.920;2023-07-31T11:50:52;98224.81;;;30.76;27.32
42519;BME280;28147;47.520;18.920;2023-07-31T11:53:37;98221.91;;;31.25;26.14
42519;BME280;28147;47.520;18.920;2023-07-31T11:56:07;98220.66;;;30.63;27.87
42519;BME280;28147;47.520;18.920;2023-07-31T11:58:34;98208.78;;;30.82;27.80
42519;BME280;28147;47.520;18.920;2023-07-31T12:01:01;98212.66;;;30.77;28.13
42519;BME280;28147;47.520;18.920;2023-07-31T12:03:27;98207.03;;;30.70;28.61
42519;BME280;28147;47.520;18.920;2023-07-31T12:05:53;98201.25;;;30.75;28.32
42519;BME280;28147;47.520;18.920;2023-07-31T12:08:20;98201.00;;;30.34;28.85
42519;BME280;28147;47.520;18.920;2023-07-31T12:10:46;98196.69;;;30.60;29.02
42519;BME280;28147;47.520;18.920;2023-07-31T12:13:20;98199.84;;;30.88;28.99
42519;BME280;28147;47.520;18.920;2023-07-31T12:15:48;98199.06;;;30.88;28.88
42519;BME280;28147;47.520;18.920;2023-07-31T12:18:15;98203.31;;;31.15;28.55
42519;BME280;28147;47.520;18.920;2023-07-31T12:21:01;98189.31;;;31.27;28.44
42519;BME280;28147;47.520;18.920;2023-07-31T12:23:29;98200.22;;;30.87;28.96
42519;BME280;28147;47.520;18.920;2023-07-31T12:31:03;98173.34;;;30.46;29.86
42519;BME280;28147;47.520;18.920;2023-07-31T12:33:34;98182.56;;;31.21;28.81
42519;BME280;28147;47.520;18.920;2023-07-31T12:36:02;98184.66;;;30.98;28.64
42519;BME280;28147;47.520;18.920;2023-07-31T12:38:28;98185.09;;;30.73;29.25
42519;BME280;28147;47.520;18.920;2023-07-31T12:40:53;98184.13;;;31.19;29.62
42519;BME280;28147;47.520;18.920;2023-07-31T12:43:19;98177.06;;;30.88;28.56
42519;BME280;28147;47.520;18.920;2023-07-31T12:45:44;98179.75;;;31.14;28.53
42519;BME280;28147;47.520;18.920;2023-07-31T12:48:10;98169.09;;;31.13;28.23
42519;BME280;28147;47.520;18.920;2023-07-31T12:50:36;98168.66;;;31.07;28.62
42519;BME280;28147;47.520;18.920;2023-07-31T12:53:02;98163.25;;;30.81;29.21
42519;BME280;28147;47.520;18.920;2023-07-31T12:55:28;98165.22;;;31.17;28.48
42519;BME280;28147;47.520;18.920;2023-07-31T12:57:55;98162.91;;;30.59;29.13
42519;BME280;28147;47.520;18.920;2023-07-31T13:00:21;98164.19;;;30.65;29.20
42519;BME280;28147;47.520;18.920;2023-07-31T13:02:46;98157.22;;;30.18;29.25
42519;BME280;28147;47.520;18.920;2023-07-31T13:05:12;98149.09;;;30.25;28.79